Shindler, South Dakota
Current Conditions -  °F | °C
As of 6:56 PM on Saturday 22 Nov 2014 (Local Time) from KFSD Reporting Station
Overcast Overcast  
Wind Chill: 32°   Ceiling: 25000
Heat Index: 41°   Visibility: 10mi
Dew Point: 36°   Wind: 17mph
Humidity: 82%   Direction: 190°S
Pressure: 29.48"   Gusts: 28mph
Location:  43.5199°N, 96.7933°W
Report Text: KFSD 230056Z 19015G24KT 10SM FEW100 OVC250 05/02 A2948 RMK AO2 SLP995 T00500022
Loading
Personal Weather Stations






























Interactive Weather Map New forecast layout! Learn more

10-Day Weather Forecast

Advertisements
Track Severe Weather on mobile